Terminal Aerodrome Forecast
Issued by NWS

Home | Current Version | Previous Version | Text Only | Print | Product List | Glossary On
Versions: 1 2 3 4 5 6 7 8 9 10 11 12 13 14 15 16 17 18
000
FTAK31 PAFA 061158
TAFAQT
TAF
PAQT 061158Z 0612/0712 06007KT 2SM BR OVC003
     FM062000 05010KT P6SM OVC010
     FM070800 06005KT 2SM BR OVC005=

USA.gov is the U.S. government's official web portal to all federal, state and local government web resources and services.